createdAt,value
2016-12-11T00:00:17.403Z,2.47
2016-12-11T00:01:17.936Z,2.10
2016-12-11T00:02:18.464Z,3.75
2016-12-11T00:03:18.998Z,2.10
2016-12-11T00:04:19.569Z,1.92
2016-12-11T00:05:20.068Z,1.51
2016-12-11T00:06:20.600Z,1.92
2016-12-11T00:07:21.134Z,1.64
2016-12-11T00:08:21.660Z,1.45
2016-12-11T00:09:22.339Z,1.73
2016-12-11T00:10:22.724Z,2.09
2016-12-11T00:11:23.407Z,1.54
2016-12-11T00:12:23.793Z,2.10
2016-12-11T00:13:24.470Z,1.73
2016-12-11T00:14:25.002Z,1.54
2016-12-11T00:15:25.384Z,1.35
2016-12-11T00:16:25.914Z,0.89
2016-12-11T00:17:26.594Z,1.92
2016-12-11T00:18:27.005Z,1.82
2016-12-11T00:19:27.654Z,1.45
2016-12-11T00:20:28.038Z,1.26
2016-12-11T00:21:28.599Z,1.35
2016-12-11T00:22:29.098Z,1.45
2016-12-11T00:23:29.778Z,1.26
2016-12-11T00:24:30.165Z,1.17
2016-12-11T00:25:30.694Z,1.08
2016-12-11T00:26:31.231Z,1.73
2016-12-11T00:27:31.906Z,1.07
2016-12-11T00:28:32.285Z,0.70
2016-12-11T00:29:32.820Z,0.98
2016-12-11T00:30:33.347Z,1.82
2016-12-11T00:31:33.880Z,2.29
2016-12-11T00:32:34.444Z,2.23
2016-12-11T00:33:35.087Z,1.92
2016-12-11T00:34:35.470Z,1.54
2016-12-11T00:35:36.002Z,2.10
2016-12-11T00:36:36.527Z,2.01
2016-12-11T00:37:37.065Z,2.28
2016-12-11T00:38:37.745Z,2.00
2016-12-11T00:39:38.124Z,0.98
2016-12-11T00:40:38.649Z,1.83
2016-12-11T00:41:39.206Z,1.63
2016-12-11T00:42:39.712Z,1.82
2016-12-11T00:43:40.398Z,1.26
2016-12-11T00:44:40.937Z,1.54
2016-12-11T00:45:41.321Z,1.64
2016-12-11T00:46:42.004Z,0.89
2016-12-11T00:47:42.384Z,1.45
2016-12-11T00:48:42.950Z,1.26
2016-12-11T00:49:43.439Z,1.45
2016-12-11T00:50:44.122Z,0.89
2016-12-11T00:51:44.500Z,1.26
2016-12-11T00:52:45.062Z,1.64
2016-12-11T00:53:45.568Z,1.54
2016-12-11T00:54:46.102Z,1.36
2016-12-11T00:55:46.634Z,1.54
2016-12-11T00:56:47.184Z,1.64
2016-12-11T00:57:47.693Z,1.64
2016-12-11T00:58:48.222Z,2.10
2016-12-11T00:59:48.753Z,1.55
2016-12-11T01:00:49.433Z,1.35
2016-12-11T01:01:49.818Z,1.73
2016-12-11T01:02:50.344Z,2.00
2016-12-11T01:03:50.877Z,1.17
2016-12-11T01:04:51.457Z,1.17
2016-12-11T01:05:51.942Z,1.54
2016-12-11T01:06:52.467Z,2.00
2016-12-11T01:07:53.001Z,1.91
2016-12-11T01:08:53.535Z,1.35
2016-12-11T01:09:54.067Z,1.82
2016-12-11T01:10:54.609Z,1.26
2016-12-11T01:11:55.127Z,1.45
2016-12-11T01:12:55.812Z,1.26
2016-12-11T01:13:56.189Z,1.83
2016-12-11T01:14:56.721Z,2.01
2016-12-11T01:15:57.252Z,2.00
2016-12-11T01:16:57.783Z,1.54
2016-12-11T01:17:58.318Z,1.26
2016-12-11T01:18:58.882Z,1.45
2016-12-11T01:19:59.382Z,1.73
2016-12-11T01:21:00.060Z,1.54
2016-12-11T01:22:00.445Z,1.92
2016-12-11T01:23:00.969Z,1.55
2016-12-11T01:24:01.504Z,1.83
2016-12-11T01:25:02.037Z,1.26
2016-12-11T01:26:02.572Z,1.45
2016-12-11T01:27:03.110Z,1.45
2016-12-11T01:28:03.642Z,1.45
2016-12-11T01:29:04.324Z,1.36
2016-12-11T01:30:04.848Z,1.26
2016-12-11T01:31:05.250Z,1.82
2016-12-11T01:32:05.763Z,1.26
2016-12-11T01:33:06.327Z,2.20
2016-12-11T01:34:06.824Z,2.10
2016-12-11T01:35:07.356Z,1.08
2016-12-11T01:36:07.890Z,0.70
2016-12-11T01:37:08.415Z,0.98
2016-12-11T01:38:09.099Z,1.36
2016-12-11T01:39:09.630Z,2.00
2016-12-11T01:40:10.015Z,1.45
2016-12-11T01:41:10.540Z,1.82
2016-12-11T01:42:11.221Z,2.01
2016-12-11T01:43:11.603Z,1.07
2016-12-11T01:44:12.137Z,1.26
2016-12-11T01:45:12.814Z,0.52
2016-12-11T01:46:13.199Z,0.52
2016-12-11T01:47:13.732Z,1.26
2016-12-11T01:48:14.257Z,1.74
2016-12-11T01:49:14.801Z,1.82
2016-12-11T01:50:15.348Z,1.92
2016-12-11T01:51:15.852Z,1.54
2016-12-11T01:52:16.448Z,0.43
2016-12-11T01:53:16.930Z,0.98
2016-12-11T01:54:17.589Z,1.44
2016-12-11T01:55:18.117Z,1.73
2016-12-11T01:56:18.647Z,1.83
2016-12-11T01:57:19.182Z,1.73
2016-12-11T01:58:19.575Z,0.62
2016-12-11T01:59:20.094Z,0.70
2016-12-11T02:00:20.630Z,0.56
2016-12-11T02:01:21.311Z,0.89
2016-12-11T02:02:21.695Z,1.26
2016-12-11T02:03:22.378Z,0.52
2016-12-11T02:04:22.760Z,0.52
2016-12-11T02:05:23.288Z,0.99
2016-12-11T02:06:23.976Z,1.45
2016-12-11T02:07:24.511Z,1.44
2016-12-11T02:08:24.894Z,1.45
2016-12-11T02:09:25.576Z,1.17
2016-12-11T02:10:25.958Z,1.26
2016-12-11T02:11:26.635Z,1.64
2016-12-11T02:12:27.017Z,1.35
2016-12-11T02:13:27.698Z,1.45
2016-12-11T02:14:28.075Z,0.89
2016-12-11T02:15:28.753Z,0.98
2016-12-11T02:16:29.137Z,1.54
2016-12-11T02:17:29.669Z,1.17
2016-12-11T02:18:30.200Z,1.83
2016-12-11T02:19:30.764Z,0.98
2016-12-11T02:20:31.262Z,0.43
2016-12-11T02:21:31.825Z,0.06
2016-12-11T02:22:32.321Z,1.44
2016-12-11T02:23:32.861Z,1.26
2016-12-11T02:24:33.392Z,1.36
2016-12-11T02:25:34.065Z,1.26
2016-12-11T02:26:34.444Z,0.98
2016-12-11T02:27:35.126Z,1.92
2016-12-11T02:28:35.509Z,1.92
2016-12-11T02:29:36.191Z,2.00
2016-12-11T02:30:36.576Z,1.83
2016-12-11T02:31:37.253Z,1.73
2016-12-11T02:32:37.643Z,2.10
2016-12-11T02:33:38.309Z,1.26
2016-12-11T02:34:38.722Z,1.64
2016-12-11T02:35:39.370Z,2.01
2016-12-11T02:36:39.749Z,1.54
2016-12-11T02:37:40.313Z,1.54
2016-12-11T02:38:40.960Z,0.99
2016-12-11T02:39:41.492Z,1.45
2016-12-11T02:40:41.879Z,1.64
2016-12-11T02:41:42.554Z,1.26
2016-12-11T02:42:42.940Z,1.17
2016-12-11T02:43:43.500Z,1.17
2016-12-11T02:44:44.005Z,1.55
2016-12-11T02:45:44.568Z,1.73
2016-12-11T02:46:45.073Z,1.92
2016-12-11T02:47:45.611Z,1.18
2016-12-11T02:48:46.141Z,2.20
2016-12-11T02:49:46.677Z,1.66
2016-12-11T02:50:47.209Z,1.26
2016-12-11T02:51:47.889Z,1.63
2016-12-11T02:52:48.271Z,1.44
2016-12-11T02:53:48.953Z,1.54
2016-12-11T02:54:49.337Z,1.64
2016-12-11T02:55:49.864Z,1.74
2016-12-11T02:56:50.543Z,1.83
2016-12-11T02:57:50.925Z,1.64
2016-12-11T02:58:51.457Z,1.35
2016-12-11T02:59:52.139Z,1.64
2016-12-11T03:00:52.673Z,1.63
2016-12-11T03:01:53.200Z,1.45
2016-12-11T03:02:53.582Z,1.73
2016-12-11T03:03:54.135Z,1.63
2016-12-11T03:04:54.646Z,1.45
2016-12-11T03:05:55.179Z,1.26
2016-12-11T03:06:55.714Z,2.10
2016-12-11T03:07:56.239Z,1.36
2016-12-11T03:08:56.767Z,1.83
2016-12-11T03:09:57.453Z,2.01
2016-12-11T03:10:58.011Z,1.92
2016-12-11T03:11:58.369Z,2.09
2016-12-11T03:12:59.042Z,1.36
2016-12-11T03:13:59.452Z,1.55
2016-12-11T03:14:59.954Z,1.64
2016-12-11T03:16:00.487Z,1.55
2016-12-11T03:17:01.010Z,1.45
2016-12-11T03:18:01.568Z,0.70
2016-12-11T03:19:02.219Z,1.17
2016-12-11T03:20:02.627Z,0.80
2016-12-11T03:21:03.135Z,1.26
2016-12-11T03:22:03.666Z,0.99
2016-12-11T03:23:04.198Z,1.08
2016-12-11T03:24:04.877Z,0.70
2016-12-11T03:25:05.291Z,0.70
2016-12-11T03:26:05.948Z,0.70
2016-12-11T03:27:06.481Z,0.89
2016-12-11T03:28:06.907Z,1.45
2016-12-11T03:29:07.399Z,1.36
2016-12-11T03:30:07.960Z,1.13
2016-12-11T03:31:08.610Z,1.17
2016-12-11T03:32:09.147Z,1.64
2016-12-11T03:33:09.528Z,0.89
2016-12-11T03:34:10.209Z,1.17
2016-12-11T03:35:10.735Z,1.54
2016-12-11T03:36:11.120Z,1.07
2016-12-11T03:37:11.653Z,1.64
2016-12-11T03:38:12.206Z,1.82
2016-12-11T03:39:12.711Z,1.08
2016-12-11T03:40:13.391Z,0.98
2016-12-11T03:41:13.787Z,1.36
2016-12-11T03:42:14.340Z,0.89
2016-12-11T03:43:14.864Z,2.20
2016-12-11T03:44:15.374Z,0.89
2016-12-11T03:45:16.051Z,2.01
2016-12-11T03:46:16.434Z,1.45
2016-12-11T03:47:16.964Z,1.44
2016-12-11T03:48:17.526Z,1.45
2016-12-11T03:49:18.023Z,1.17
2016-12-11T03:50:18.555Z,0.70
2016-12-11T03:51:19.253Z,0.80
2016-12-11T03:52:19.621Z,0.61
2016-12-11T03:53:20.299Z,1.35
2016-12-11T03:54:20.678Z,0.99
2016-12-11T03:55:21.211Z,0.80
2016-12-11T03:56:21.741Z,0.61
2016-12-11T03:57:22.274Z,2.09
2016-12-11T03:58:22.800Z,0.98
2016-12-11T03:59:23.335Z,0.61
2016-12-11T04:00:23.863Z,0.89
2016-12-11T04:01:24.394Z,1.26
2016-12-11T04:02:24.921Z,0.99
2016-12-11T04:03:25.601Z,0.89
2016-12-11T04:04:26.135Z,1.08
2016-12-11T04:05:26.519Z,0.89
2016-12-11T04:06:27.088Z,0.80
2016-12-11T04:07:27.587Z,0.61
2016-12-11T04:08:28.156Z,0.71
2016-12-11T04:09:28.657Z,0.43
2016-12-11T04:10:29.340Z,1.73
2016-12-11T04:11:29.722Z,1.27
2016-12-11T04:12:30.255Z,0.80
2016-12-11T04:13:30.780Z,0.70
2016-12-11T04:14:31.347Z,0.61
2016-12-11T04:15:31.992Z,0.89
2016-12-11T04:16:32.414Z,1.45
2016-12-11T04:17:33.057Z,0.89
2016-12-11T04:18:33.592Z,0.70
2016-12-11T04:19:33.969Z,0.61
2016-12-11T04:20:34.501Z,1.35
2016-12-11T04:21:35.036Z,1.26
2016-12-11T04:22:35.713Z,0.98
2016-12-11T04:23:36.241Z,1.08
2016-12-11T04:24:36.659Z,1.26
2016-12-11T04:25:37.156Z,0.71
2016-12-11T04:26:37.687Z,0.80
2016-12-11T04:27:38.368Z,0.89
2016-12-11T04:28:38.750Z,0.33
2016-12-11T04:29:39.279Z,0.70
2016-12-11T04:30:39.969Z,0.99
2016-12-11T04:31:40.487Z,0.89
2016-12-11T04:32:41.023Z,0.80
2016-12-11T04:33:41.549Z,0.24
2016-12-11T04:34:41.971Z,0.61
2016-12-11T04:35:42.467Z,0.43
2016-12-11T04:36:43.029Z,0.43
2016-12-11T04:37:43.675Z,0.24
2016-12-11T04:38:44.055Z,0.80
2016-12-11T04:39:44.735Z,0.80
2016-12-11T04:40:45.269Z,1.91
2016-12-11T04:41:45.655Z,1.64
2016-12-11T04:42:46.181Z,1.08
2016-12-11T04:43:46.713Z,0.71
2016-12-11T04:44:47.391Z,0.80
2016-12-11T04:45:47.773Z,0.33
2016-12-11T04:46:48.310Z,0.99
2016-12-11T04:47:48.844Z,1.17
2016-12-11T04:48:49.378Z,0.98
2016-12-11T04:49:49.913Z,1.35
2016-12-11T04:50:50.593Z,1.18
2016-12-11T04:51:50.983Z,1.72
2016-12-11T04:52:51.542Z,1.91
2016-12-11T04:53:52.036Z,2.00
2016-12-11T04:54:52.563Z,1.54
2016-12-11T04:55:53.244Z,0.70
2016-12-11T04:56:53.631Z,0.71
2016-12-11T04:57:54.305Z,1.17
2016-12-11T04:58:54.839Z,0.99
2016-12-11T04:59:55.220Z,1.54
2016-12-11T05:00:55.899Z,1.55
2016-12-11T05:01:56.283Z,1.24
2016-12-11T05:02:56.848Z,3.48
2016-12-11T05:03:57.341Z,1.73
2016-12-11T05:04:58.024Z,2.47
2016-12-11T05:05:58.406Z,1.27
2016-12-11T05:06:58.960Z,1.08
2016-12-11T05:07:59.613Z,1.35
2016-12-11T05:09:00.149Z,0.71
2016-12-11T05:10:00.677Z,0.80
2016-12-11T05:11:01.058Z,0.80
2016-12-11T05:12:01.593Z,1.63
2016-12-11T05:13:02.270Z,0.52
2016-12-11T05:14:02.651Z,1.18
2016-12-11T05:15:03.331Z,0.89
2016-12-11T05:16:03.858Z,0.62
2016-12-11T05:17:04.253Z,0.70
2016-12-11T05:18:04.775Z,0.80
2016-12-11T05:19:05.454Z,1.45
2016-12-11T05:20:05.982Z,1.54
2016-12-11T05:21:06.372Z,1.64
2016-12-11T05:22:06.895Z,2.00
2016-12-11T05:23:07.422Z,2.01
2016-12-11T05:24:07.963Z,1.83
2016-12-11T05:25:08.515Z,0.98
2016-12-11T05:26:09.020Z,0.43
2016-12-11T05:27:09.555Z,0.34
2016-12-11T05:28:10.236Z,0.15
2016-12-11T05:29:10.659Z,1.17
2016-12-11T05:30:11.160Z,1.45
2016-12-11T05:31:11.703Z,1.45
2016-12-11T05:32:12.221Z,0.80
2016-12-11T05:33:12.753Z,2.10
2016-12-11T05:34:13.284Z,1.08
2016-12-11T05:35:13.842Z,1.45
2016-12-11T05:36:14.348Z,0.43
2016-12-11T05:37:14.912Z,2.00
2016-12-11T05:38:15.563Z,1.55
2016-12-11T05:39:15.976Z,0.00
2016-12-11T05:40:16.628Z,1.27
2016-12-11T05:41:17.025Z,0.71
2016-12-11T05:42:17.545Z,1.26
2016-12-11T05:43:18.080Z,2.47
2016-12-11T05:44:18.759Z,1.63
2016-12-11T05:45:19.145Z,1.55
2016-12-11T05:46:19.677Z,1.18
2016-12-11T05:47:20.211Z,1.83
2016-12-11T05:48:20.745Z,2.67
2016-12-11T05:49:21.278Z,1.93
2016-12-11T05:50:21.977Z,0.93
2016-12-11T05:51:22.354Z,1.73
2016-12-11T05:52:23.024Z,1.74
2016-12-11T05:53:23.415Z,1.83
2016-12-11T05:54:24.091Z,3.20
2016-12-11T05:55:24.511Z,2.38
2016-12-11T05:56:25.156Z,1.64
2016-12-11T05:57:25.550Z,2.37
2016-12-11T05:58:26.074Z,1.91
2016-12-11T05:59:26.634Z,3.01
2016-12-11T06:00:27.140Z,4.12
2016-12-11T06:01:27.669Z,3.13
2016-12-11T06:02:28.353Z,3.29
2016-12-11T06:03:28.887Z,3.56
2016-12-11T06:04:29.414Z,5.53
2016-12-11T06:05:29.954Z,1.83
2016-12-11T06:06:30.338Z,2.76
2016-12-11T06:07:30.904Z,2.30
2016-12-11T06:08:31.410Z,3.19
2016-12-11T06:09:31.945Z,3.36
2016-12-11T06:10:32.484Z,2.92
2016-12-11T06:11:33.017Z,4.09
2016-12-11T06:12:33.554Z,6.05
2016-12-11T06:13:34.087Z,2.81
2016-12-11T06:14:34.623Z,1.65
2016-12-11T06:15:35.154Z,5.41
2016-12-11T06:16:35.687Z,3.00
2016-12-11T06:17:36.374Z,1.92
2016-12-11T06:18:36.754Z,1.91
2016-12-11T06:19:37.286Z,2.37
2016-12-11T06:20:37.965Z,3.79
2016-12-11T06:21:38.382Z,1.73
2016-12-11T06:22:38.884Z,3.83
2016-12-11T06:23:39.443Z,1.46
2016-12-11T06:24:39.951Z,2.02
2016-12-11T06:25:40.481Z,2.56
2016-12-11T06:26:41.028Z,3.84
2016-12-11T06:27:41.547Z,2.10
2016-12-11T06:28:42.085Z,3.62
2016-12-11T06:29:42.791Z,4.18
2016-12-11T06:30:43.297Z,5.68
2016-12-11T06:31:43.682Z,3.73
2016-12-11T06:32:44.221Z,4.12
2016-12-11T06:33:44.754Z,5.30
2016-12-11T06:34:45.432Z,3.37
2016-12-11T06:35:45.843Z,4.76
2016-12-11T06:36:46.497Z,4.14
2016-12-11T06:37:46.920Z,2.48
2016-12-11T06:38:47.565Z,3.98
2016-12-11T06:39:47.950Z,4.38
2016-12-11T06:40:48.483Z,6.35
2016-12-11T06:41:49.012Z,5.15
2016-12-11T06:42:49.547Z,3.54
2016-12-11T06:43:50.118Z,2.75
2016-12-11T06:44:50.615Z,2.57
2016-12-11T06:45:51.165Z,2.84
2016-12-11T06:46:51.681Z,4.16
2016-12-11T06:47:52.247Z,3.68
2016-12-11T06:48:52.897Z,4.43
2016-12-11T06:49:53.291Z,4.47
2016-12-11T06:50:53.824Z,4.91
2016-12-11T06:51:54.387Z,4.14
2016-12-11T06:52:54.896Z,2.68
2016-12-11T06:53:55.427Z,3.68
2016-12-11T06:54:56.111Z,3.15
2016-12-11T06:55:56.645Z,1.81
2016-12-11T06:56:57.176Z,3.01
2016-12-11T06:57:57.559Z,2.37
2016-12-11T06:58:58.096Z,2.20
2016-12-11T06:59:58.780Z,1.55
2016-12-11T07:00:59.161Z,2.46
2016-12-11T07:01:59.844Z,4.51
2016-12-11T07:03:00.226Z,2.55
2016-12-11T07:04:00.781Z,3.24
2016-12-11T07:05:01.291Z,2.70
2016-12-11T07:06:01.974Z,5.35
2016-12-11T07:07:02.503Z,4.29
2016-12-11T07:08:03.044Z,5.10
2016-12-11T07:09:03.425Z,3.11
2016-12-11T07:10:04.107Z,3.49
2016-12-11T07:11:04.491Z,2.75
2016-12-11T07:12:05.020Z,4.32
2016-12-11T07:13:05.559Z,4.18
2016-12-11T07:14:06.089Z,2.65
2016-12-11T07:15:06.620Z,4.84
2016-12-11T07:16:07.189Z,4.29
2016-12-11T07:17:07.838Z,5.24
2016-12-11T07:18:08.372Z,3.83
2016-12-11T07:19:08.902Z,3.50
2016-12-11T07:20:09.288Z,2.65
2016-12-11T07:21:09.819Z,3.10
2016-12-11T07:22:10.351Z,2.28
2016-12-11T07:23:11.029Z,2.91
2016-12-11T07:24:11.408Z,2.85
2016-12-11T07:25:11.948Z,2.33
2016-12-11T07:26:12.475Z,2.63
2016-12-11T07:27:13.012Z,2.19
2016-12-11T07:28:13.696Z,2.74
2016-12-11T07:29:14.229Z,3.52
2016-12-11T07:30:14.646Z,4.04
2016-12-11T07:31:15.158Z,2.75
2016-12-11T07:32:15.837Z,4.38
2016-12-11T07:33:16.219Z,4.48
2016-12-11T07:34:16.777Z,2.55
2016-12-11T07:35:17.287Z,2.27
2016-12-11T07:36:17.824Z,2.67
2016-12-11T07:37:18.500Z,4.79
2016-12-11T07:38:19.034Z,4.44
2016-12-11T07:39:19.413Z,2.79
2016-12-11T07:40:19.975Z,3.01
2016-12-11T07:41:20.486Z,2.44
2016-12-11T07:42:21.013Z,3.65
2016-12-11T07:43:21.548Z,4.59
2016-12-11T07:44:22.098Z,2.00
2016-12-11T07:45:22.604Z,2.85
2016-12-11T07:46:23.165Z,2.73
2016-12-11T07:47:23.811Z,3.20
2016-12-11T07:48:24.348Z,3.02
2016-12-11T07:49:24.873Z,2.20
2016-12-11T07:50:25.259Z,5.24
2016-12-11T07:51:25.788Z,4.42
2016-12-11T07:52:26.317Z,2.85
2016-12-11T07:53:26.851Z,2.54
2016-12-11T07:54:27.530Z,1.63
2016-12-11T07:55:28.058Z,4.75
2016-12-11T07:56:28.443Z,3.30
2016-12-11T07:57:28.975Z,3.90
2016-12-11T07:58:29.654Z,4.61
2016-12-11T07:59:30.042Z,3.25
2016-12-11T08:00:30.726Z,3.85
2016-12-11T08:01:31.103Z,2.37
2016-12-11T08:02:31.788Z,2.28
2016-12-11T08:03:32.174Z,2.10
2016-12-11T08:04:32.852Z,3.40
2016-12-11T08:05:33.236Z,2.34
2016-12-11T08:06:33.768Z,3.70
2016-12-11T08:07:34.298Z,4.41
2016-12-11T08:08:34.983Z,2.48
2016-12-11T08:09:35.516Z,2.53
2016-12-11T08:10:35.903Z,4.21
2016-12-11T08:11:36.435Z,2.89
2016-12-11T08:12:36.991Z,3.72
2016-12-11T08:13:37.639Z,3.80
2016-12-11T08:14:38.026Z,2.94
2016-12-11T08:15:38.556Z,2.93
2016-12-11T08:16:39.099Z,2.18
2016-12-11T08:17:39.622Z,4.06
2016-12-11T08:18:40.303Z,2.28
2016-12-11T08:19:40.685Z,1.54
2016-12-11T08:20:41.215Z,2.18
2016-12-11T08:21:41.892Z,2.30
2016-12-11T08:22:42.314Z,2.91
2016-12-11T08:23:42.818Z,1.45
2016-12-11T08:24:43.345Z,2.00
2016-12-11T08:25:43.878Z,1.36
2016-12-11T08:26:44.446Z,2.10
2016-12-11T08:27:45.091Z,2.07
2016-12-11T08:28:45.777Z,1.92
2016-12-11T08:29:46.158Z,1.18
2016-12-11T08:30:46.542Z,1.27
2016-12-11T08:31:47.077Z,4.03
2016-12-11T08:32:47.758Z,4.16
2016-12-11T08:33:48.143Z,1.64
2016-12-11T08:34:48.678Z,1.35
2016-12-11T08:35:49.203Z,2.01
2016-12-11T08:36:49.765Z,2.10
2016-12-11T08:37:50.414Z,1.55
2016-12-11T08:38:50.834Z,1.64
2016-12-11T08:39:51.332Z,1.63
2016-12-11T08:40:52.012Z,1.64
2016-12-11T08:41:52.543Z,1.81
2016-12-11T08:42:53.080Z,1.92
2016-12-11T08:43:53.464Z,2.10
2016-12-11T08:44:54.149Z,1.83
2016-12-11T08:45:54.561Z,1.55
2016-12-11T08:46:55.092Z,1.08
2016-12-11T08:47:55.599Z,0.99
2016-12-11T08:48:56.137Z,1.64
2016-12-11T08:49:56.675Z,1.81
2016-12-11T08:50:57.360Z,1.08
2016-12-11T08:51:57.895Z,2.01
2016-12-11T08:52:58.428Z,0.80
2016-12-11T08:53:58.956Z,1.18
2016-12-11T08:54:59.362Z,1.08
2016-12-11T08:55:59.867Z,1.54
2016-12-11T08:57:00.547Z,0.89
2016-12-11T08:58:00.935Z,1.92
2016-12-11T08:59:01.465Z,1.35
2016-12-11T09:00:02.141Z,2.01
2016-12-11T09:01:02.524Z,0.89
2016-12-11T09:02:03.057Z,0.80
2016-12-11T09:03:03.586Z,1.36
2016-12-11T09:04:04.269Z,2.10
2016-12-11T09:05:04.652Z,2.00
2016-12-11T09:06:05.329Z,1.21
2016-12-11T09:07:05.868Z,1.08
2016-12-11T09:08:06.551Z,1.55
2016-12-11T09:09:06.782Z,1.54
2016-12-11T09:10:07.315Z,2.01
2016-12-11T09:11:07.846Z,1.74
2016-12-11T09:12:08.385Z,2.11
2016-12-11T09:13:08.942Z,2.67
2016-12-11T09:14:09.603Z,2.20
2016-12-11T09:15:09.976Z,1.26
2016-12-11T09:16:10.509Z,1.42
2016-12-11T09:17:11.074Z,1.54
2016-12-11T09:18:11.571Z,2.19
2016-12-11T09:19:12.256Z,3.03
2016-12-11T09:20:12.631Z,1.54
2016-12-11T09:21:13.312Z,1.36
2016-12-11T09:22:13.848Z,2.71
2016-12-11T09:23:14.382Z,1.45
2016-12-11T09:24:14.764Z,1.83
2016-12-11T09:25:15.326Z,1.72
2016-12-11T09:26:15.972Z,1.45
2016-12-11T09:27:16.383Z,1.35
2016-12-11T09:28:17.046Z,3.93
2016-12-11T09:29:17.455Z,3.49
2016-12-11T09:30:18.115Z,2.28
2016-12-11T09:31:18.502Z,1.64
2016-12-11T09:32:19.034Z,1.83
2016-12-11T09:33:19.573Z,2.11
2016-12-11T09:34:20.108Z,1.92
2016-12-11T09:35:20.634Z,2.00
2016-12-11T09:36:21.170Z,2.30
2016-12-11T09:37:21.701Z,1.98
2016-12-11T09:38:22.234Z,2.01
2016-12-11T09:39:22.765Z,1.54
2016-12-11T09:40:23.305Z,1.55
2016-12-11T09:41:23.884Z,1.54
2016-12-11T09:42:24.373Z,0.89
2016-12-11T09:43:25.052Z,1.45
2016-12-11T09:44:25.435Z,3.03
2016-12-11T09:45:26.120Z,1.46
2016-12-11T09:46:26.503Z,2.09
2016-12-11T09:47:27.183Z,1.18
2016-12-11T09:48:27.561Z,1.35
2016-12-11T09:49:28.098Z,3.03
2016-12-11T09:50:28.626Z,2.00
2016-12-11T09:51:29.313Z,1.83
2016-12-11T09:52:29.841Z,2.00
2016-12-11T09:53:30.230Z,1.17
2016-12-11T09:54:30.907Z,0.99
2016-12-11T09:55:31.318Z,0.62
2016-12-11T09:56:31.823Z,1.82
2016-12-11T09:57:32.390Z,2.76
2016-12-11T09:58:32.887Z,1.08
2016-12-11T09:59:33.452Z,0.89
2016-12-11T10:00:34.096Z,1.92
2016-12-11T10:01:34.481Z,1.27
2016-12-11T10:02:35.162Z,2.11
2016-12-11T10:03:35.546Z,1.73
2016-12-11T10:04:36.081Z,1.74
2016-12-11T10:05:36.644Z,1.36
2016-12-11T10:06:37.145Z,1.55
2016-12-11T10:07:37.706Z,1.37
2016-12-11T10:08:38.218Z,1.36
2016-12-11T10:09:38.755Z,2.02
2016-12-11T10:10:39.289Z,0.90
2016-12-11T10:11:39.822Z,1.45
2016-12-11T10:12:40.355Z,2.28
2016-12-11T10:13:40.922Z,1.74
2016-12-11T10:14:41.423Z,2.02
2016-12-11T10:15:41.948Z,1.46
2016-12-11T10:16:42.629Z,0.89
2016-12-11T10:17:43.054Z,1.73
2016-12-11T10:18:43.695Z,2.56
2016-12-11T10:19:44.229Z,2.02
2016-12-11T10:20:44.638Z,2.48
2016-12-11T10:21:45.142Z,1.08
2016-12-11T10:22:45.677Z,1.18
2016-12-11T10:23:46.241Z,2.57
2016-12-11T10:24:46.737Z,1.92
2016-12-11T10:25:47.271Z,2.48
2016-12-11T10:26:47.946Z,1.55
2016-12-11T10:27:48.332Z,0.97
2016-12-11T10:28:48.862Z,2.47
2016-12-11T10:29:49.401Z,1.36
2016-12-11T10:30:49.923Z,1.74
2016-12-11T10:31:50.456Z,1.35
2016-12-11T10:32:50.987Z,2.67
2016-12-11T10:33:51.520Z,1.73
2016-12-11T10:34:52.049Z,2.66
2016-12-11T10:35:52.607Z,3.13
2016-12-11T10:36:53.111Z,2.49
2016-12-11T10:37:53.679Z,2.10
2016-12-11T10:38:54.171Z,1.55
2016-12-11T10:39:54.738Z,1.26
2016-12-11T10:40:55.230Z,2.48
2016-12-11T10:41:55.797Z,2.00
2016-12-11T10:42:56.325Z,1.08
2016-12-11T10:43:56.972Z,1.92
2016-12-11T10:44:57.350Z,2.35
2016-12-11T10:45:57.889Z,1.74
2016-12-11T10:46:58.414Z,1.36
2016-12-11T10:47:58.946Z,1.36
2016-12-11T10:48:59.477Z,1.36
2016-12-11T10:50:00.048Z,1.91
2016-12-11T10:51:00.546Z,2.01
2016-12-11T10:52:01.078Z,1.63
2016-12-11T10:53:01.606Z,1.55
2016-12-11T10:54:02.160Z,1.64
2016-12-11T10:55:02.809Z,1.83
2016-12-11T10:56:03.225Z,0.99
2016-12-11T10:57:03.724Z,2.11
2016-12-11T10:58:04.400Z,1.45
2016-12-11T10:59:04.781Z,1.45
2016-12-11T11:00:05.310Z,1.17
2016-12-11T11:01:05.838Z,0.81
2016-12-11T11:02:06.388Z,0.80
2016-12-11T11:03:06.899Z,0.80
2016-12-11T11:04:07.577Z,0.99
2016-12-11T11:05:08.106Z,1.55
2016-12-11T11:06:08.637Z,2.30
2016-12-11T11:07:09.021Z,1.27
2016-12-11T11:08:09.583Z,1.18
2016-12-11T11:09:10.083Z,0.99
2016-12-11T11:10:10.608Z,1.92
2016-12-11T11:11:11.139Z,1.55
2016-12-11T11:12:11.698Z,2.82
2016-12-11T11:13:12.196Z,1.73
2016-12-11T11:14:12.875Z,2.37
2016-12-11T11:15:13.254Z,1.46
2016-12-11T11:16:13.810Z,0.62
2016-12-11T11:17:14.314Z,1.74
2016-12-11T11:18:14.847Z,1.55
2016-12-11T11:19:15.521Z,1.55
2016-12-11T11:20:16.053Z,1.83
2016-12-11T11:21:16.434Z,1.45
2016-12-11T11:22:16.990Z,1.18
2016-12-11T11:23:17.642Z,1.54
2016-12-11T11:24:18.060Z,0.99
2016-12-11T11:25:18.561Z,0.62
2016-12-11T11:26:19.143Z,1.08
2016-12-11T11:27:19.768Z,1.93
2016-12-11T11:28:20.150Z,1.63
2016-12-11T11:29:20.686Z,1.83
2016-12-11T11:30:21.221Z,1.55
2016-12-11T11:31:21.903Z,1.26
2016-12-11T11:32:22.292Z,1.54
2016-12-11T11:33:22.825Z,1.45
2016-12-11T11:34:23.498Z,1.46
2016-12-11T11:35:23.880Z,1.65
2016-12-11T11:36:24.556Z,2.48
2016-12-11T11:37:24.936Z,0.99
2016-12-11T11:38:25.615Z,1.18
2016-12-11T11:39:25.990Z,2.46
2016-12-11T11:40:26.672Z,1.55
2016-12-11T11:41:27.198Z,1.73
2016-12-11T11:42:27.729Z,0.99
2016-12-11T11:43:28.256Z,0.71
2016-12-11T11:44:28.787Z,1.55
2016-12-11T11:45:29.468Z,2.21
2016-12-11T11:46:29.848Z,1.84
2016-12-11T11:47:30.229Z,1.84
2016-12-11T11:48:30.759Z,1.46
2016-12-11T11:49:31.431Z,0.62
2016-12-11T11:50:31.814Z,1.09
2016-12-11T11:51:32.350Z,1.27
2016-12-11T11:52:32.876Z,1.52
2016-12-11T11:53:33.411Z,1.75
2016-12-11T11:54:34.084Z,1.27
2016-12-11T11:55:34.469Z,2.11
2016-12-11T11:56:35.026Z,1.36
2016-12-11T11:57:35.524Z,1.46
2016-12-11T11:58:36.201Z,1.36
2016-12-11T11:59:36.583Z,1.27
2016-12-11T12:00:37.143Z,3.47
2016-12-11T12:01:37.642Z,2.49
2016-12-11T12:02:38.168Z,1.83
2016-12-11T12:03:38.699Z,1.46
2016-12-11T12:04:39.261Z,0.46
2016-12-11T12:05:39.766Z,1.55
2016-12-11T12:06:40.321Z,2.11
2016-12-11T12:07:40.823Z,2.19
2016-12-11T12:08:41.502Z,2.21
2016-12-11T12:09:42.031Z,1.83
2016-12-11T12:10:42.443Z,1.09
2016-12-11T12:11:43.100Z,0.89
2016-12-11T12:12:43.635Z,1.65
2016-12-11T12:13:44.162Z,1.09
2016-12-11T12:14:44.548Z,1.36
2016-12-11T12:15:45.082Z,0.81
2016-12-11T12:16:45.637Z,1.45
2016-12-11T12:17:46.140Z,1.36
2016-12-11T12:18:46.818Z,1.09
2016-12-11T12:19:47.224Z,1.27
2016-12-11T12:20:47.733Z,1.55
2016-12-11T12:21:48.257Z,1.74
2016-12-11T12:22:48.808Z,1.99
2016-12-11T12:23:49.460Z,1.36
2016-12-11T12:24:50.140Z,0.44
2016-12-11T12:25:50.517Z,1.55
2016-12-11T12:26:51.051Z,1.55
2016-12-11T12:27:51.581Z,1.36
2016-12-11T12:28:51.973Z,1.36
2016-12-11T12:29:52.494Z,0.80
2016-12-11T12:30:53.018Z,0.90
2016-12-11T12:31:53.551Z,1.36
2016-12-11T12:32:54.106Z,0.99
2016-12-11T12:33:54.613Z,0.52
2016-12-11T12:34:55.143Z,1.55
2016-12-11T12:35:55.819Z,2.36
2016-12-11T12:36:56.201Z,1.55
2016-12-11T12:37:56.743Z,1.18
2016-12-11T12:38:57.256Z,1.65
2016-12-11T12:39:57.935Z,1.08
2016-12-11T12:40:58.471Z,0.89
2016-12-11T12:41:58.852Z,0.90
2016-12-11T12:42:59.533Z,1.36
2016-12-11T12:43:59.912Z,1.36
2016-12-11T12:45:00.446Z,2.10
2016-12-11T12:46:01.116Z,1.55
2016-12-11T12:47:01.537Z,0.71
2016-12-11T12:48:02.034Z,1.18
2016-12-11T12:49:02.594Z,1.36
2016-12-11T12:50:03.100Z,1.54
2016-12-11T12:51:03.783Z,1.26
2016-12-11T12:52:04.161Z,1.08
2016-12-11T12:53:04.690Z,0.34
2016-12-11T12:54:05.221Z,0.71
2016-12-11T12:55:05.747Z,0.81
2016-12-11T12:56:06.426Z,1.36
2016-12-11T12:57:06.813Z,0.99
2016-12-11T12:58:07.344Z,0.80
2016-12-11T12:59:07.875Z,0.89
2016-12-11T13:00:08.553Z,0.99
2016-12-11T13:01:09.087Z,0.81
2016-12-11T13:02:09.615Z,0.34
2016-12-11T13:03:10.150Z,0.15
2016-12-11T13:04:10.530Z,0.07
2016-12-11T13:05:11.059Z,1.27
2016-12-11T13:06:11.596Z,0.43
2016-12-11T13:07:12.118Z,0.52
2016-12-11T13:08:12.650Z,0.62
2016-12-11T13:09:13.180Z,0.71
2016-12-11T13:10:13.862Z,0.43
2016-12-11T13:11:14.279Z,0.90
2016-12-11T13:12:14.780Z,0.52
2016-12-11T13:13:15.307Z,1.08
2016-12-11T13:14:15.841Z,0.89
2016-12-11T13:15:16.368Z,1.17
2016-12-11T13:16:16.898Z,0.62
2016-12-11T13:17:17.425Z,0.25
2016-12-11T13:18:17.978Z,0.44
2016-12-11T13:19:18.512Z,0.90
2016-12-11T13:20:19.015Z,0.57
2016-12-11T13:21:19.694Z,2.28
2016-12-11T13:22:20.080Z,3.78
2016-12-11T13:23:20.609Z,4.56
2016-12-11T13:24:21.139Z,1.55
2016-12-11T13:25:21.693Z,1.28